sensor_id;sensor_type;location;lat;lon;timestamp;temperature;humidity
44305;DHT22;30019;50.576;8.568;2023-04-01T00:01:04;8.90;99.90
44305;DHT22;30019;50.576;8.568;2023-04-01T00:03:30;8.90;99.90
44305;DHT22;30019;50.576;8.568;2023-04-01T00:05:57;8.90;99.90
44305;DHT22;30019;50.576;8.568;2023-04-01T00:08:24;8.90;99.90
44305;DHT22;30019;50.576;8.568;2023-04-01T00:10:50;9.00;99.90
44305;DHT22;30019;50.576;8.568;2023-04-01T00:13:15;9.00;99.90
44305;DHT22;30019;50.576;8.568;2023-04-01T00:15:41;8.90;99.90
44305;DHT22;30019;50.576;8.568;2023-04-01T00:18:07;8.90;99.90
44305;DHT22;30019;50.576;8.568;2023-04-01T00:20:33;8.90;99.90
44305;DHT22;30019;50.576;8.568;2023-04-01T00:22:59;8.90;99.90
44305;DHT22;30019;50.576;8.568;2023-04-01T00:25:25;8.90;99.90
44305;DHT22;30019;50.576;8.568;2023-04-01T00:27:50;8.80;99.90
44305;DHT22;30019;50.576;8.568;2023-04-01T00:30:16;8.80;99.90
44305;DHT22;30019;50.576;8.568;2023-04-01T00:32:42;8.80;99.90
44305;DHT22;30019;50.576;8.568;2023-04-01T00:35:08;8.90;99.90
44305;DHT22;30019;50.576;8.568;2023-04-01T00:37:35;9.00;99.90
44305;DHT22;30019;50.576;8.568;2023-04-01T00:40:03;9.00;99.90
44305;DHT22;30019;50.576;8.568;2023-04-01T00:42:30;8.90;99.90
44305;DHT22;30019;50.576;8.568;2023-04-01T00:44:56;8.90;99.90
44305;DHT22;30019;50.576;8.568;2023-04-01T00:47:23;8.90;99.90
44305;DHT22;30019;50.576;8.568;2023-04-01T00:49:51;8.90;99.90
44305;DHT22;30019;50.576;8.568;2023-04-01T00:52:22;8.90;99.90
44305;DHT22;30019;50.576;8.568;2023-04-01T00:54:52;8.90;99.90
44305;DHT22;30019;50.576;8.568;2023-04-01T00:57:24;8.90;99.90
44305;DHT22;30019;50.576;8.568;2023-04-01T00:59:54;8.90;99.90
44305;DHT22;30019;50.576;8.568;2023-04-01T01:02:20;8.90;99.90
44305;DHT22;30019;50.576;8.568;2023-04-01T01:04:46;8.80;99.90
44305;DHT22;30019;50.576;8.568;2023-04-01T01:07:17;8.80;99.90
44305;DHT22;30019;50.576;8.568;2023-04-01T01:15:16;8.80;99.90
44305;DHT22;30019;50.576;8.568;2023-04-01T01:18:03;8.80;99.90
44305;DHT22;30019;50.576;8.568;2023-04-01T01:23:36;8.80;99.90
44305;DHT22;30019;50.576;8.568;2023-04-01T01:34:19;8.80;99.90
44305;DHT22;30019;50.576;8.568;2023-04-01T01:36:49;8.70;99.90
44305;DHT22;30019;50.576;8.568;2023-04-01T01:39:18;8.70;99.90
44305;DHT22;30019;50.576;8.568;2023-04-01T01:41:46;8.70;99.90
44305;DHT22;30019;50.576;8.568;2023-04-01T01:44:16;8.70;99.90
44305;DHT22;30019;50.576;8.568;2023-04-01T01:46:42;8.70;99.90
44305;DHT22;30019;50.576;8.568;2023-04-01T01:49:10;8.60;99.90
44305;DHT22;30019;50.576;8.568;2023-04-01T01:51:37;8.60;99.90
44305;DHT22;30019;50.576;8.568;2023-04-01T01:54:04;8.70;99.90
44305;DHT22;30019;50.576;8.568;2023-04-01T01:56:30;8.70;99.90
44305;DHT22;30019;50.576;8.568;2023-04-01T01:59:03;8.70;99.90
44305;DHT22;30019;50.576;8.568;2023-04-01T02:01:34;8.60;99.90
44305;DHT22;30019;50.576;8.568;2023-04-01T02:04:02;8.60;99.90
44305;DHT22;30019;50.576;8.568;2023-04-01T02:06:32;8.70;99.90
44305;DHT22;30019;50.576;8.568;2023-04-01T02:09:02;8.60;99.90
44305;DHT22;30019;50.576;8.568;2023-04-01T02:11:40;8.70;99.90
44305;DHT22;30019;50.576;8.568;2023-04-01T02:14:22;8.70;99.90
44305;DHT22;30019;50.576;8.568;2023-04-01T02:17:07;8.70;99.90
44305;DHT22;30019;50.576;8.568;2023-04-01T02:19:59;8.70;99.90
44305;DHT22;30019;50.576;8.568;2023-04-01T02:22:28;8.70;99.90
44305;DHT22;30019;50.576;8.568;2023-04-01T02:25:05;8.60;99.90
44305;DHT22;30019;50.576;8.568;2023-04-01T02:27:31;8.60;99.90
44305;DHT22;30019;50.576;8.568;2023-04-01T02:29:57;8.60;99.90
44305;DHT22;30019;50.576;8.568;2023-04-01T02:32:24;8.60;99.90
44305;DHT22;30019;50.576;8.568;2023-04-01T02:34:51;8.60;99.90
44305;DHT22;30019;50.576;8.568;2023-04-01T02:37:17;8.60;99.90
44305;DHT22;30019;50.576;8.568;2023-04-01T02:39:43;8.70;99.90
44305;DHT22;30019;50.576;8.568;2023-04-01T02:42:09;8.60;99.90
44305;DHT22;30019;50.576;8.568;2023-04-01T02:44:35;8.60;99.90
44305;DHT22;30019;50.576;8.568;2023-04-01T02:47:00;8.60;99.90
44305;DHT22;30019;50.576;8.568;2023-04-01T02:49:26;8.60;99.90
44305;DHT22;30019;50.576;8.568;2023-04-01T02:51:52;8.70;99.90
44305;DHT22;30019;50.576;8.568;2023-04-01T02:54:18;8.60;99.90
44305;DHT22;30019;50.576;8.568;2023-04-01T02:56:44;8.60;99.90
44305;DHT22;30019;50.576;8.568;2023-04-01T02:59:11;8.60;99.90
44305;DHT22;30019;50.576;8.568;2023-04-01T03:01:37;8.60;99.90
44305;DHT22;30019;50.576;8.568;2023-04-01T03:04:03;8.60;99.90
44305;DHT22;30019;50.576;8.568;2023-04-01T03:06:28;8.60;99.90
44305;DHT22;30019;50.576;8.568;2023-04-01T03:08:54;8.60;99.90
44305;DHT22;30019;50.576;8.568;2023-04-01T03:11:20;8.60;99.90
44305;DHT22;30019;50.576;8.568;2023-04-01T03:13:46;8.60;99.90
44305;DHT22;30019;50.576;8.568;2023-04-01T03:16:12;8.60;99.90
44305;DHT22;30019;50.576;8.568;2023-04-01T03:18:37;8.60;99.90
44305;DHT22;30019;50.576;8.568;2023-04-01T03:21:22;8.50;99.90
44305;DHT22;30019;50.576;8.568;2023-04-01T03:23:48;8.40;99.90
44305;DHT22;30019;50.576;8.568;2023-04-01T03:26:14;8.50;99.90
44305;DHT22;30019;50.576;8.568;2023-04-01T03:28:40;8.50;99.90
44305;DHT22;30019;50.576;8.568;2023-04-01T03:31:06;8.50;99.90
44305;DHT22;30019;50.576;8.568;2023-04-01T03:33:31;8.50;99.90
44305;DHT22;30019;50.576;8.568;2023-04-01T03:35:57;8.50;99.90
44305;DHT22;30019;50.576;8.568;2023-04-01T03:38:23;8.50;99.90
44305;DHT22;30019;50.576;8.568;2023-04-01T03:40:49;8.50;99.90
44305;DHT22;30019;50.576;8.568;2023-04-01T03:43:14;8.50;99.90
44305;DHT22;30019;50.576;8.568;2023-04-01T03:45:50;8.50;99.90
44305;DHT22;30019;50.576;8.568;2023-04-01T03:48:16;8.40;99.90
44305;DHT22;30019;50.576;8.568;2023-04-01T03:50:42;8.50;99.90
44305;DHT22;30019;50.576;8.568;2023-04-01T03:53:08;8.40;99.90
44305;DHT22;30019;50.576;8.568;2023-04-01T03:55:35;8.50;99.90
44305;DHT22;30019;50.576;8.568;2023-04-01T03:58:01;8.50;99.90
44305;DHT22;30019;50.576;8.568;2023-04-01T04:00:28;8.40;99.90
44305;DHT22;30019;50.576;8.568;2023-04-01T04:02:54;8.40;99.90
44305;DHT22;30019;50.576;8.568;2023-04-01T04:05:22;8.40;99.90
44305;DHT22;30019;50.576;8.568;2023-04-01T04:07:47;8.50;99.90
44305;DHT22;30019;50.576;8.568;2023-04-01T04:10:13;8.50;99.90
44305;DHT22;30019;50.576;8.568;2023-04-01T04:12:38;8.50;99.90
44305;DHT22;30019;50.576;8.568;2023-04-01T04:15:06;8.50;99.90
44305;DHT22;30019;50.576;8.568;2023-04-01T04:17:31;8.40;99.90
44305;DHT22;30019;50.576;8.568;2023-04-01T04:19:57;8.40;99.90
44305;DHT22;30019;50.576;8.568;2023-04-01T04:22:23;8.40;99.90
44305;DHT22;30019;50.576;8.568;2023-04-01T04:24:48;8.40;99.90
44305;DHT22;30019;50.576;8.568;2023-04-01T04:27:14;8.40;99.90
44305;DHT22;30019;50.576;8.568;2023-04-01T04:29:39;8.30;99.90
44305;DHT22;30019;50.576;8.568;2023-04-01T04:32:05;8.40;99.90
44305;DHT22;30019;50.576;8.568;2023-04-01T04:34:31;8.30;99.90
44305;DHT22;30019;50.576;8.568;2023-04-01T04:36:56;8.30;99.90
44305;DHT22;30019;50.576;8.568;2023-04-01T04:39:22;8.30;99.90
44305;DHT22;30019;50.576;8.568;2023-04-01T04:41:48;8.30;99.90
44305;DHT22;30019;50.576;8.568;2023-04-01T04:44:13;8.30;99.90
44305;DHT22;30019;50.576;8.568;2023-04-01T04:46:39;8.30;99.90
44305;DHT22;30019;50.576;8.568;2023-04-01T04:49:05;8.30;99.90
44305;DHT22;30019;50.576;8.568;2023-04-01T04:51:31;8.30;99.90
44305;DHT22;30019;50.576;8.568;2023-04-01T04:53:59;8.30;99.90
44305;DHT22;30019;50.576;8.568;2023-04-01T04:56:25;8.20;99.90
44305;DHT22;30019;50.576;8.568;2023-04-01T04:58:51;8.20;99.90
44305;DHT22;30019;50.576;8.568;2023-04-01T05:01:18;8.20;99.90
44305;DHT22;30019;50.576;8.568;2023-04-01T05:03:44;8.30;99.90
44305;DHT22;30019;50.576;8.568;2023-04-01T05:06:12;8.20;99.90
44305;DHT22;30019;50.576;8.568;2023-04-01T05:08:38;8.20;99.90
44305;DHT22;30019;50.576;8.568;2023-04-01T05:11:07;8.10;99.90
44305;DHT22;30019;50.576;8.568;2023-04-01T05:13:36;8.20;99.90
44305;DHT22;30019;50.576;8.568;2023-04-01T05:16:01;8.20;99.90
44305;DHT22;30019;50.576;8.568;2023-04-01T05:18:27;8.20;99.90
44305;DHT22;30019;50.576;8.568;2023-04-01T05:20:54;8.10;99.90
44305;DHT22;30019;50.576;8.568;2023-04-01T05:23:21;8.10;99.90
44305;DHT22;30019;50.576;8.568;2023-04-01T05:25:48;8.10;99.90
44305;DHT22;30019;50.576;8.568;2023-04-01T05:28:14;8.10;99.90
44305;DHT22;30019;50.576;8.568;2023-04-01T05:30:41;8.10;99.90
44305;DHT22;30019;50.576;8.568;2023-04-01T05:33:07;8.10;99.90
44305;DHT22;30019;50.576;8.568;2023-04-01T05:35:33;8.10;99.90
44305;DHT22;30019;50.576;8.568;2023-04-01T05:37:58;8.10;99.90
44305;DHT22;30019;50.576;8.568;2023-04-01T05:40:24;8.10;99.90
44305;DHT22;30019;50.576;8.568;2023-04-01T05:42:50;8.20;99.90
44305;DHT22;30019;50.576;8.568;2023-04-01T05:45:16;8.10;99.90
44305;DHT22;30019;50.576;8.568;2023-04-01T05:47:41;8.10;99.90
44305;DHT22;30019;50.576;8.568;2023-04-01T05:50:09;8.10;99.90
44305;DHT22;30019;50.576;8.568;2023-04-01T05:52:35;8.10;99.90
44305;DHT22;30019;50.576;8.568;2023-04-01T05:55:01;8.10;99.90
44305;DHT22;30019;50.576;8.568;2023-04-01T05:57:27;8.10;99.90
44305;DHT22;30019;50.576;8.568;2023-04-01T05:59:52;8.20;99.90
44305;DHT22;30019;50.576;8.568;2023-04-01T06:02:18;8.20;99.90
44305;DHT22;30019;50.576;8.568;2023-04-01T06:04:44;8.20;99.90
44305;DHT22;30019;50.576;8.568;2023-04-01T06:07:17;8.20;99.90
44305;DHT22;30019;50.576;8.568;2023-04-01T06:09:44;8.20;99.90
44305;DHT22;30019;50.576;8.568;2023-04-01T06:28:54;8.40;99.90
44305;DHT22;30019;50.576;8.568;2023-04-01T06:31:42;8.50;99.90
44305;DHT22;30019;50.576;8.568;2023-04-01T06:34:31;8.50;99.90
44305;DHT22;30019;50.576;8.568;2023-04-01T06:40:08;8.50;99.90
44305;DHT22;30019;50.576;8.568;2023-04-01T06:56:28;8.70;99.90
44305;DHT22;30019;50.576;8.568;2023-04-01T06:59:08;8.70;99.90
44305;DHT22;30019;50.576;8.568;2023-04-01T07:01:42;8.70;99.90
44305;DHT22;30019;50.576;8.568;2023-04-01T07:04:26;8.70;99.90
44305;DHT22;30019;50.576;8.568;2023-04-01T07:06:57;8.70;99.90
44305;DHT22;30019;50.576;8.568;2023-04-01T07:09:32;8.70;99.90
44305;DHT22;30019;50.576;8.568;2023-04-01T07:12:04;8.80;99.90
44305;DHT22;30019;50.576;8.568;2023-04-01T07:14:36;8.80;99.90
44305;DHT22;30019;50.576;8.568;2023-04-01T07:17:08;8.90;99.90
44305;DHT22;30019;50.576;8.568;2023-04-01T07:19:51;8.90;99.90
44305;DHT22;30019;50.576;8.568;2023-04-01T07:22:34;9.00;99.90
44305;DHT22;30019;50.576;8.568;2023-04-01T07:27:53;9.00;99.90
44305;DHT22;30019;50.576;8.568;2023-04-01T07:30:23;9.00;99.90
44305;DHT22;30019;50.576;8.568;2023-04-01T07:33:02;9.10;99.90
44305;DHT22;30019;50.576;8.568;2023-04-01T07:35:50;9.20;99.90
44305;DHT22;30019;50.576;8.568;2023-04-01T07:52:08;9.70;99.90
44305;DHT22;30019;50.576;8.568;2023-04-01T07:54:50;9.70;99.90
44305;DHT22;30019;50.576;8.568;2023-04-01T07:57:30;9.60;99.90
44305;DHT22;30019;50.576;8.568;2023-04-01T08:08:19;9.80;99.90
44305;DHT22;30019;50.576;8.568;2023-04-01T08:11:46;9.80;99.90
44305;DHT22;30019;50.576;8.568;2023-04-01T08:14:11;9.90;99.90
44305;DHT22;30019;50.576;8.568;2023-04-01T08:16:53;9.90;99.90
44305;DHT22;30019;50.576;8.568;2023-04-01T08:21:47;9.90;99.90
44305;DHT22;30019;50.576;8.568;2023-04-01T08:24:43;9.80;99.90
44305;DHT22;30019;50.576;8.568;2023-04-01T08:27:11;9.80;99.90
44305;DHT22;30019;50.576;8.568;2023-04-01T08:29:57;9.80;99.90
44305;DHT22;30019;50.576;8.568;2023-04-01T08:32:41;9.80;99.90
44305;DHT22;30019;50.576;8.568;2023-04-01T08:35:09;9.70;99.90
44305;DHT22;30019;50.576;8.568;2023-04-01T08:37:38;9.80;99.90
44305;DHT22;30019;50.576;8.568;2023-04-01T08:48:40;9.80;99.90
44305;DHT22;30019;50.576;8.568;2023-04-01T08:56:55;9.80;99.90
44305;DHT22;30019;50.576;8.568;2023-04-01T08:59:32;10.00;99.90
44305;DHT22;30019;50.576;8.568;2023-04-01T09:02:42;10.10;99.90
44305;DHT22;30019;50.576;8.568;2023-04-01T09:16:23;10.90;99.90
44305;DHT22;30019;50.576;8.568;2023-04-01T09:21:46;10.90;99.90
44305;DHT22;30019;50.576;8.568;2023-04-01T09:24:57;10.90;99.90
44305;DHT22;30019;50.576;8.568;2023-04-01T09:27:40;10.90;99.90
44305;DHT22;30019;50.576;8.568;2023-04-01T09:30:42;10.80;99.90
44305;DHT22;30019;50.576;8.568;2023-04-01T09:33:22;10.80;99.90
44305;DHT22;30019;50.576;8.568;2023-04-01T09:36:12;10.80;99.90
44305;DHT22;30019;50.576;8.568;2023-04-01T09:39:03;10.70;99.90
44305;DHT22;30019;50.576;8.568;2023-04-01T09:44:35;10.50;99.90
44305;DHT22;30019;50.576;8.568;2023-04-01T09:50:12;10.30;99.90
44305;DHT22;30019;50.576;8.568;2023-04-01T09:52:53;10.30;99.90
44305;DHT22;30019;50.576;8.568;2023-04-01T10:04:07;10.60;99.90
44305;DHT22;30019;50.576;8.568;2023-04-01T10:12:05;10.60;99.90
44305;DHT22;30019;50.576;8.568;2023-04-01T10:23:20;10.90;99.90
44305;DHT22;30019;50.576;8.568;2023-04-01T10:29:03;11.10;99.90
44305;DHT22;30019;50.576;8.568;2023-04-01T10:45:57;10.90;99.90
44305;DHT22;30019;50.576;8.568;2023-04-01T10:51:29;10.90;99.90
44305;DHT22;30019;50.576;8.568;2023-04-01T11:00:08;11.00;99.90
44305;DHT22;30019;50.576;8.568;2023-04-01T11:11:32;11.00;99.90
44305;DHT22;30019;50.576;8.568;2023-04-01T11:27:48;10.70;99.90
44305;DHT22;30019;50.576;8.568;2023-04-01T11:43:33;10.60;99.90
44305;DHT22;30019;50.576;8.568;2023-04-01T11:46:12;10.40;99.90
44305;DHT22;30019;50.576;8.568;2023-04-01T11:48:58;10.20;99.90
44305;DHT22;30019;50.576;8.568;2023-04-01T11:51:55;10.10;99.90
44305;DHT22;30019;50.576;8.568;2023-04-01T11:54:49;10.10;99.90
44305;DHT22;30019;50.576;8.568;2023-04-01T11:58:03;10.20;99.90
44305;DHT22;30019;50.576;8.568;2023-04-01T12:03:54;10.30;99.90
44305;DHT22;30019;50.576;8.568;2023-04-01T12:09:09;10.60;99.90
44305;DHT22;30019;50.576;8.568;2023-04-01T12:14:30;11.00;99.90
44305;DHT22;30019;50.576;8.568;2023-04-01T12:23:22;10.90;99.90
44305;DHT22;30019;50.576;8.568;2023-04-01T12:28:54;10.80;99.90
44305;DHT22;30019;50.576;8.568;2023-04-01T12:45:35;11.00;99.90
44305;DHT22;30019;50.576;8.568;2023-04-01T13:02:12;10.70;99.90
44305;DHT22;30019;50.576;8.568;2023-04-01T13:04:44;10.70;99.90
44305;DHT22;30019;50.576;8.568;2023-04-01T13:12:49;10.90;99.90
44305;DHT22;30019;50.576;8.568;2023-04-01T13:15:33;11.00;99.90
44305;DHT22;30019;50.576;8.568;2023-04-01T13:18:22;11.20;99.90
44305;DHT22;30019;50.576;8.568;2023-04-01T13:20:57;11.40;99.90
44305;DHT22;30019;50.576;8.568;2023-04-01T13:26:34;11.60;99.90
44305;DHT22;30019;50.576;8.568;2023-04-01T13:29:31;11.70;99.90
44305;DHT22;30019;50.576;8.568;2023-04-01T13:34:33;12.10;99.90
44305;DHT22;30019;50.576;8.568;2023-04-01T13:39:56;12.60;99.90
44305;DHT22;30019;50.576;8.568;2023-04-01T13:42:37;12.40;99.90
44305;DHT22;30019;50.576;8.568;2023-04-01T13:45:29;12.10;99.90
44305;DHT22;30019;50.576;8.568;2023-04-01T13:51:00;11.90;99.90
44305;DHT22;30019;50.576;8.568;2023-04-01T13:54:56;11.90;99.90
44305;DHT22;30019;50.576;8.568;2023-04-01T13:57:05;11.90;99.90
44305;DHT22;30019;50.576;8.568;2023-04-01T13:59:46;12.10;99.90
44305;DHT22;30019;50.576;8.568;2023-04-01T14:02:47;12.20;99.90
44305;DHT22;30019;50.576;8.568;2023-04-01T14:05:49;12.40;99.90
44305;DHT22;30019;50.576;8.568;2023-04-01T14:25:32;12.70;99.90
44305;DHT22;30019;50.576;8.568;2023-04-01T14:28:36;12.80;99.90
44305;DHT22;30019;50.576;8.568;2023-04-01T14:50:15;12.10;99.90
44305;DHT22;30019;50.576;8.568;2023-04-01T15:06:48;11.90;99.90
44305;DHT22;30019;50.576;8.568;2023-04-01T15:09:54;11.80;99.90
44305;DHT22;30019;50.576;8.568;2023-04-01T15:15:17;11.60;99.90
44305;DHT22;30019;50.576;8.568;2023-04-01T15:26:17;11.60;99.90
44305;DHT22;30019;50.576;8.568;2023-04-01T15:32:21;11.60;99.90
44305;DHT22;30019;50.576;8.568;2023-04-01T15:48:28;11.80;99.90
44305;DHT22;30019;50.576;8.568;2023-04-01T15:51:08;11.70;99.90
44305;DHT22;30019;50.576;8.568;2023-04-01T15:56:30;11.50;99.90
44305;DHT22;30019;50.576;8.568;2023-04-01T15:59:20;11.50;99.90
44305;DHT22;30019;50.576;8.568;2023-04-01T16:02:22;11.50;99.90
44305;DHT22;30019;50.576;8.568;2023-04-01T16:05:21;11.40;99.90
44305;DHT22;30019;50.576;8.568;2023-04-01T16:11:19;11.30;99.90
44305;DHT22;30019;50.576;8.568;2023-04-01T16:21:43;11.00;99.90
44305;DHT22;30019;50.576;8.568;2023-04-01T16:30:00;11.10;99.90
44305;DHT22;30019;50.576;8.568;2023-04-01T16:32:50;11.20;99.90
44305;DHT22;30019;50.576;8.568;2023-04-01T16:38:22;11.20;99.90
44305;DHT22;30019;50.576;8.568;2023-04-01T16:41:00;11.30;99.90
44305;DHT22;30019;50.576;8.568;2023-04-01T16:43:39;11.40;99.90
44305;DHT22;30019;50.576;8.568;2023-04-01T16:46:32;11.30;99.90
44305;DHT22;30019;50.576;8.568;2023-04-01T16:54:18;11.20;99.90
44305;DHT22;30019;50.576;8.568;2023-04-01T16:56:52;11.10;99.90
44305;DHT22;30019;50.576;8.568;2023-04-01T17:07:43;10.80;99.90
44305;DHT22;30019;50.576;8.568;2023-04-01T17:18:56;10.60;99.90
44305;DHT22;30019;50.576;8.568;2023-04-01T17:27:18;10.60;99.90
44305;DHT22;30019;50.576;8.568;2023-04-01T17:44:16;10.60;99.90
44305;DHT22;30019;50.576;8.568;2023-04-01T17:49:33;10.50;99.90
44305;DHT22;30019;50.576;8.568;2023-04-01T17:57:48;10.40;99.90
44305;DHT22;30019;50.576;8.568;2023-04-01T18:00:29;10.30;99.90
44305;DHT22;30019;50.576;8.568;2023-04-01T18:05:57;10.30;99.90
44305;DHT22;30019;50.576;8.568;2023-04-01T18:11:27;10.10;99.90
44305;DHT22;30019;50.576;8.568;2023-04-01T18:14:13;10.10;99.90
44305;DHT22;30019;50.576;8.568;2023-04-01T18:19:29;10.10;99.90
44305;DHT22;30019;50.576;8.568;2023-04-01T18:22:09;10.10;99.90
44305;DHT22;30019;50.576;8.568;2023-04-01T18:24:44;10.10;99.90
44305;DHT22;30019;50.576;8.568;2023-04-01T18:27:29;10.10;99.90
44305;DHT22;30019;50.576;8.568;2023-04-01T18:30:15;10.00;99.90
44305;DHT22;30019;50.576;8.568;2023-04-01T18:38:33;10.10;99.90
44305;DHT22;30019;50.576;8.568;2023-04-01T18:41:10;10.10;99.90
44305;DHT22;30019;50.576;8.568;2023-04-01T18:46:34;10.00;99.90
44305;DHT22;30019;50.576;8.568;2023-04-01T18:51:55;9.90;99.90
44305;DHT22;30019;50.576;8.568;2023-04-01T18:54:42;9.90;99.90
44305;DHT22;30019;50.576;8.568;2023-04-01T18:57:15;9.90;99.90
44305;DHT22;30019;50.576;8.568;2023-04-01T18:59:54;9.90;99.90
44305;DHT22;30019;50.576;8.568;2023-04-01T19:02:50;9.90;99.90
44305;DHT22;30019;50.576;8.568;2023-04-01T19:05:25;9.90;99.90
44305;DHT22;30019;50.576;8.568;2023-04-01T19:07:54;9.90;99.90
44305;DHT22;30019;50.576;8.568;2023-04-01T19:13:16;9.80;99.90
44305;DHT22;30019;50.576;8.568;2023-04-01T19:15:49;9.70;99.90
44305;DHT22;30019;50.576;8.568;2023-04-01T19:20:56;9.70;99.90
44305;DHT22;30019;50.576;8.568;2023-04-01T19:26:45;9.60;99.90
44305;DHT22;30019;50.576;8.568;2023-04-01T19:30:32;9.70;99.90
44305;DHT22;30019;50.576;8.568;2023-04-01T19:35:52;9.50;99.90
44305;DHT22;30019;50.576;8.568;2023-04-01T19:41:44;9.50;99.90
44305;DHT22;30019;50.576;8.568;2023-04-01T19:44:01;9.50;99.90
44305;DHT22;30019;50.576;8.568;2023-04-01T19:46:43;9.40;99.90
44305;DHT22;30019;50.576;8.568;2023-04-01T20:02:55;9.20;99.90
44305;DHT22;30019;50.576;8.568;2023-04-01T20:08:14;9.20;99.90
44305;DHT22;30019;50.576;8.568;2023-04-01T20:16:43;9.20;99.90
44305;DHT22;30019;50.576;8.568;2023-04-01T20:19:11;9.10;99.90
44305;DHT22;30019;50.576;8.568;2023-04-01T20:21:42;9.10;99.90
44305;DHT22;30019;50.576;8.568;2023-04-01T20:24:41;9.10;99.90
44305;DHT22;30019;50.576;8.568;2023-04-01T20:27:19;9.10;99.90
44305;DHT22;30019;50.576;8.568;2023-04-01T20:30:22;9.10;99.90
44305;DHT22;30019;50.576;8.568;2023-04-01T20:39:04;9.00;99.90
44305;DHT22;30019;50.576;8.568;2023-04-01T20:47:02;9.00;99.90
44305;DHT22;30019;50.576;8.568;2023-04-01T20:52:25;9.00;99.90
44305;DHT22;30019;50.576;8.568;2023-04-01T21:09:23;8.80;99.90
44305;DHT22;30019;50.576;8.568;2023-04-01T21:15:10;8.70;99.90
44305;DHT22;30019;50.576;8.568;2023-04-01T21:23:18;8.80;99.90
44305;DHT22;30019;50.576;8.568;2023-04-01T21:29:08;8.90;99.90
44305;DHT22;30019;50.576;8.568;2023-04-01T21:32:11;8.90;99.90
44305;DHT22;30019;50.576;8.568;2023-04-01T21:42:44;8.90;99.90
44305;DHT22;30019;50.576;8.568;2023-04-01T21:45:22;8.90;99.90
44305;DHT22;30019;50.576;8.568;2023-04-01T21:54:15;8.90;99.90
44305;DHT22;30019;50.576;8.568;2023-04-01T22:00:20;8.90;99.90
44305;DHT22;30019;50.576;8.568;2023-04-01T22:03:13;8.90;99.90
44305;DHT22;30019;50.576;8.568;2023-04-01T22:13:42;8.80;99.90
44305;DHT22;30019;50.576;8.568;2023-04-01T22:37:49;8.60;99.90
44305;DHT22;30019;50.576;8.568;2023-04-01T22:43:03;8.50;99.90
44305;DHT22;30019;50.576;8.568;2023-04-01T22:46:13;8.50;99.90
44305;DHT22;30019;50.576;8.568;2023-04-01T22:51:24;8.40;99.90
44305;DHT22;30019;50.576;8.568;2023-04-01T22:54:13;8.40;99.90
44305;DHT22;30019;50.576;8.568;2023-04-01T22:59:41;8.40;99.90
44305;DHT22;30019;50.576;8.568;2023-04-01T23:02:42;8.40;99.90
44305;DHT22;30019;50.576;8.568;2023-04-01T23:05:15;8.40;99.90
44305;DHT22;30019;50.576;8.568;2023-04-01T23:10:53;8.40;99.90
44305;DHT22;30019;50.576;8.568;2023-04-01T23:13:27;8.40;99.90
44305;DHT22;30019;50.576;8.568;2023-04-01T23:15:55;8.40;99.90
44305;DHT22;30019;50.576;8.568;2023-04-01T23:21:34;8.30;99.90
44305;DHT22;30019;50.576;8.568;2023-04-01T23:27:31;8.30;99.90
44305;DHT22;30019;50.576;8.568;2023-04-01T23:30:00;8.30;99.90
44305;DHT22;30019;50.576;8.568;2023-04-01T23:32:26;8.30;99.90
44305;DHT22;30019;50.576;8.568;2023-04-01T23:34:55;8.30;99.90
44305;DHT22;30019;50.576;8.568;2023-04-01T23:37:23;8.30;99.90
44305;DHT22;30019;50.576;8.568;2023-04-01T23:39:53;8.30;99.90
44305;DHT22;30019;50.576;8.568;2023-04-01T23:42:27;8.30;99.90
44305;DHT22;30019;50.576;8.568;2023-04-01T23:44:57;8.30;99.90
44305;DHT22;30019;50.576;8.568;2023-04-01T23:47:26;8.40;99.90
44305;DHT22;30019;50.576;8.568;2023-04-01T23:50:03;8.30;99.90
44305;DHT22;30019;50.576;8.568;2023-04-01T23:52:46;8.30;99.90
44305;DHT22;30019;50.576;8.568;2023-04-01T23:55:18;8.30;99.90
